Time,TemperatureF,DewpointF,PressureIn,WindDirection,WindDirectionDegrees,WindSpeedMPH,WindSpeedGustMPH,Humidity,HourlyPrecipIn,Conditions,Clouds,dailyrainin,SoftwareType,DateUTC
2013-02-06 00:53:00,10.0,-99.9,30.04,WSW,239,6.0,9.0,-999,-99.99,,,-99.99,,2013-02-06 05:53:00,
2013-02-06 01:11:00,10.0,-99.9,30.05,West,263,5.0,8.0,-999,-99.99,,,-99.99,,2013-02-06 06:11:00,
2013-02-06 02:22:00,9.0,-99.9,30.07,West,267,3.0,6.0,-999,-99.99,,,-99.99,,2013-02-06 07:22:00,
2013-02-06 02:42:00,9.0,-99.9,30.08,West,278,4.0,6.0,-999,-99.99,,,-99.99,,2013-02-06 07:42:00,
2013-02-06 03:53:00,8.0,-99.9,30.10,WSW,258,4.0,8.0,-999,-99.99,,,-99.99,,2013-02-06 08:53:00,
2013-02-06 04:11:00,8.0,-99.9,30.09,West,262,3.0,7.0,-999,-99.99,,,-99.99,,2013-02-06 09:11:00,
2013-02-06 04:42:00,8.0,-99.9,30.10,West,263,4.0,7.0,-999,-99.99,,,-99.99,,2013-02-06 09:42:00,
2013-02-06 05:22:00,8.0,-99.9,30.10,West,266,4.0,9.0,-999,-99.99,,,-99.99,,2013-02-06 10:22:00,
2013-02-06 05:52:00,8.0,-99.9,30.11,West,269,3.0,7.0,-999,-99.99,,,-99.99,,2013-02-06 10:52:00,
2013-02-06 06:11:00,8.0,-99.9,30.12,West,278,3.0,8.0,-999,-99.99,,,-99.99,,2013-02-06 11:11:00,
2013-02-06 06:53:00,7.0,-99.9,30.14,WSW,258,5.0,8.0,-999,-99.99,,,-99.99,,2013-02-06 11:53:00,
2013-02-06 07:22:00,7.0,-99.9,30.14,West,267,5.0,9.0,-999,-99.99,,,-99.99,,2013-02-06 12:22:00,
2013-02-06 07:42:00,7.0,-99.9,30.15,West,265,6.0,11.0,-999,-99.99,,,-99.99,,2013-02-06 12:42:00,
2013-02-06 08:52:00,8.0,-99.9,30.16,WSW,246,6.0,8.0,-999,-99.99,,,-99.99,,2013-02-06 13:52:00,
2013-02-06 09:11:00,8.0,-99.9,30.16,WSW,249,6.0,8.0,-999,-99.99,,,-99.99,,2013-02-06 14:11:00,
2013-02-06 10:11:00,10.0,-99.9,30.17,WSW,239,4.0,5.0,-999,-99.99,,,-99.99,,2013-02-06 15:11:00,
2013-02-06 10:42:00,12.0,-99.9,30.18,WSW,237,6.0,7.0,-999,-99.99,,,-99.99,,2013-02-06 15:42:00,
2013-02-06 11:52:00,14.0,-99.9,30.20,SW,221,4.0,7.0,-999,-99.99,,,-99.99,,2013-02-06 16:52:00,
2013-02-06 12:12:00,14.0,-99.9,30.21,WSW,240,7.0,9.0,-999,-99.99,,,-99.99,,2013-02-06 17:12:00,
2013-02-06 13:23:00,16.0,-99.9,30.20,SSW,207,4.0,7.0,-999,-99.99,,,-99.99,,2013-02-06 18:23:00,
2013-02-06 13:42:00,17.0,-99.9,30.19,SW,223,2.0,3.0,-999,-99.99,,,-99.99,,2013-02-06 18:42:00,
2013-02-06 14:11:00,18.0,-99.9,30.18,ENE,68,1.0,3.0,-999,-99.99,,,-99.99,,2013-02-06 19:11:00,
2013-02-06 14:52:00,17.0,-99.9,30.18,East,95,5.0,6.0,-999,-99.99,,,-99.99,,2013-02-06 19:52:00,
2013-02-06 15:11:00,18.0,-99.9,30.18,ESE,107,4.0,5.0,-999,-99.99,,,-99.99,,2013-02-06 20:11:00,
2013-02-06 15:42:00,19.0,-99.9,30.18,NNE,27,0.0,2.0,-999,-99.99,,,-99.99,,2013-02-06 20:42:00,
2013-02-06 16:22:00,19.0,-99.9,30.18,East,92,4.0,6.0,-999,-99.99,,,-99.99,,2013-02-06 21:22:00,
2013-02-06 16:52:00,19.0,-99.9,30.18,ENE,66,4.0,6.0,-999,-99.99,,,-99.99,,2013-02-06 21:52:00,
2013-02-06 17:11:00,20.0,-99.9,30.18,ENE,69,2.0,5.0,-999,-99.99,,,-99.99,,2013-02-06 22:11:00,
2013-02-06 17:52:00,20.0,-99.9,30.17,East,91,4.0,6.0,-999,-99.99,,,-99.99,,2013-02-06 22:52:00,
2013-02-06 18:21:00,20.0,-99.9,30.17,ESE,122,7.0,8.0,-999,-99.99,,,-99.99,,2013-02-06 23:21:00,
2013-02-06 18:42:00,20.0,-99.9,30.17,East,92,5.0,7.0,-999,-99.99,,,-99.99,,2013-02-06 23:42:00,
2013-02-06 19:22:00,20.0,-99.9,30.19,SE,129,6.0,9.0,-999,-99.99,,,-99.99,,2013-02-07 00:22:00,
2013-02-06 19:52:00,19.0,-99.9,30.19,SE,144,8.0,10.0,-999,-99.99,,,-99.99,,2013-02-07 00:52:00,
2013-02-06 20:11:00,19.0,-99.9,30.19,SE,140,9.0,11.0,-999,-99.99,,,-99.99,,2013-02-07 01:11:00,
2013-02-06 20:52:00,18.0,-99.9,30.18,SE,132,8.0,9.0,-999,-99.99,,,-99.99,,2013-02-07 01:52:00,
2013-02-06 21:21:00,18.0,-99.9,30.18,South,171,8.0,9.0,-999,-99.99,,,-99.99,,2013-02-07 02:21:00,
2013-02-06 22:52:00,17.0,-99.9,30.20,WSW,238,3.0,3.0,-999,-99.99,,,-99.99,,2013-02-07 03:52:00,
2013-02-06 23:11:00,18.0,-99.9,30.20,SW,221,2.0,4.0,-999,-99.99,,,-99.99,,2013-02-07 04:11:00,